Olathe, KS

1:47 AM CST en Diciembre 08, 2016 (GMT -0600)
Northgate Estates | | Change Station

Alt 970 ft 38.89 °N, 94.82 °W | Updated 57 seconds ago

Despejado
Despejado
19.0 ° F
Sensación térmica 13 ° F
N
4.0
Viento Variable Viento desde NNE
Gusts 7.0 mph

Hoy
Alta -- | Baja -- ° F
--% Posibilidad de precipitaciones
Ayer
Alta -- | Baja -- ° F
Precip. -- pul
Presión 30.52 pul
Visibilidad 10.0 Millas
Nubes Despejado
Vientos helados 13 ° F
Punto de rocío 11 ° F
Humedad 71%
Precipitaciones 0.00 pul
Espesor de la nieve No disponible.
7:25 AM 4:57 PM
Cuarto creciente, 61% visible
METAR KOJC 080653Z AUTO 32010KT 10SM CLR M07/M14 A3047 RMK AO2 SLP334 T10721139
Presión 30.52 pul
Visibilidad 10.0 Millas
Nubes Despejado
Vientos helados 13 ° F
Punto de rocío 11 ° F
Humedad 71%
Precipitaciones 0.00 pul
Espesor de la nieve No disponible.
7:25 AM 4:57 PM
Cuarto creciente, 61% visible
METAR KOJC 080653Z AUTO 32010KT 10SM CLR M07/M14 A3047 RMK AO2 SLP334 T10721139

10-Day Weather Forecast

Almanac

Astronomía

Dec. 08, 2016 Salida Puesta
Hora real
Crepúsculo civil
Crepúsculo náutico
Crepúsculo astronómico
Luna
Horas de luz
Horas de luz
Tomorrow will be .
, % of the Moon is Illuminated

Extremos de hoy

Máximos del estado Bajos del estado

Community

WunderPhotos

Upload Photos

1,956,259 ¡fotos cargadas!

WunderBlog® & News

Nearby

Calidad del aire

  Calidad del aire Índice AQ Contaminante
Not available.

Grosos de nieve

Estación Profundido Altura

Actividad de terremotos

Ciudad Distance Mag. Tiempo y dato
Magnitud mínima muestra es 2,5.

Temperaturas de aguas costeras

Lugar Temperatura

Stations

Estaciones meteorológicas cercanas

Ubicación de la estación Temp. Vientos helados Punto de rocío Humedad Viento Precip. Alt Actualizado Tipo
                   

Watches & Warnings

There are currently no watches in effect.